Time;durP1;ratioP1;P1;durP2;ratioP2;P2;SDS_P1;SDS_P2;PMS_P1;PMS_P2;Temp;Humidity;BMP_temperature;BMP_pressure;BME280_temperature;BME280_humidity;BME280_pressure;Samples;Min_cycle;Max_cycle;Signal;HPM_P1;HPM_P2
2022/06/30 00:01:01;;;;;;;9.13;7.25;;;20.20;99.90;;;;;;5018285;28;20555;-88
2022/06/30 00:03:26;;;;;;;8.02;6.70;;;20.20;99.90;;;;;;5008188;28;20048;-88
2022/06/30 00:05:52;;;;;;;9.18;6.68;;;20.10;99.90;;;;;;5000578;28;20391;-88
2022/06/30 00:08:18;;;;;;;8.23;6.60;;;20.10;99.90;;;;;;5003677;28;20045;-88
2022/06/30 00:10:43;;;;;;;9.32;7.20;;;20.10;99.90;;;;;;4989061;28;20037;-88
2022/06/30 00:13:09;;;;;;;9.15;6.38;;;20.00;99.90;;;;;;5005300;28;20209;-89
2022/06/30 00:15:37;;;;;;;10.27;7.30;;;20.00;99.90;;;;;;5002995;28;20508;-88
2022/06/30 00:18:02;;;;;;;8.82;6.53;;;20.00;99.90;;;;;;5020870;28;20367;-87
2022/06/30 00:20:28;;;;;;;9.05;6.32;;;20.00;99.90;;;;;;5022741;28;20393;-88
2022/06/30 00:22:54;;;;;;;8.32;6.30;;;19.90;99.90;;;;;;5004458;28;20073;-88
2022/06/30 00:25:19;;;;;;;8.10;6.38;;;19.90;99.90;;;;;;5002820;28;20124;-88
2022/06/30 00:27:45;;;;;;;8.07;6.43;;;19.80;99.90;;;;;;5005524;28;20042;-90
2022/06/30 00:30:11;;;;;;;8.75;6.68;;;19.80;99.90;;;;;;5009046;28;20042;-88
2022/06/30 00:32:37;;;;;;;8.88;5.80;;;19.80;99.90;;;;;;5003635;28;20169;-89
2022/06/30 00:35:03;;;;;;;9.48;6.50;;;19.70;99.90;;;;;;5020712;28;20561;-89
2022/06/30 00:37:29;;;;;;;8.00;5.80;;;19.70;99.90;;;;;;5020198;28;20073;-88
2022/06/30 00:39:54;;;;;;;8.40;6.03;;;19.70;99.90;;;;;;5008011;28;20424;-89
2022/06/30 00:42:20;;;;;;;7.97;5.93;;;19.70;99.90;;;;;;5003170;28;20463;-88
2022/06/30 00:44:45;;;;;;;8.00;6.03;;;19.60;99.90;;;;;;5003576;28;20046;-89
2022/06/30 00:47:11;;;;;;;8.23;6.20;;;19.60;99.90;;;;;;5006395;28;20056;-89
2022/06/30 00:49:37;;;;;;;7.53;6.00;;;19.60;99.90;;;;;;5005688;28;20404;-88
2022/06/30 00:52:08;;;;;;;9.23;6.07;;;19.50;99.90;;;;;;5002149;28;20049;-89
2022/06/30 00:54:35;;;;;;;8.35;6.20;;;19.50;99.90;;;;;;4988349;28;20049;-88
2022/06/30 00:57:01;;;;;;;8.80;6.13;;;19.50;99.90;;;;;;5004250;28;20521;-88
2022/06/30 00:59:29;;;;;;;7.70;6.22;;;19.40;99.90;;;;;;5006236;28;20061;-89
2022/06/30 01:01:56;;;;;;;8.20;5.72;;;19.40;99.90;;;;;;5020634;28;20136;-87
2022/06/30 01:04:23;;;;;;;9.27;6.50;;;19.30;99.90;;;;;;4997383;28;20046;-88
2022/06/30 01:06:50;;;;;;;7.70;5.65;;;19.30;99.90;;;;;;5006362;28;20907;-89
2022/06/30 01:12:41;;;;;;;8.23;5.93;;;19.20;99.90;;;;;;5022725;28;20078;-89
2022/06/30 01:14:46;;;;;;;8.55;5.40;;;19.20;99.90;;;;;;5011017;28;20045;-89
2022/06/30 01:17:11;;;;;;;7.20;5.18;;;19.20;99.90;;;;;;4989181;28;20057;-88
2022/06/30 01:19:37;;;;;;;7.80;5.90;;;19.10;99.90;;;;;;5004014;28;20042;-89
2022/06/30 01:22:03;;;;;;;7.90;5.43;;;19.10;99.90;;;;;;5004630;28;20066;-87
2022/06/30 01:24:29;;;;;;;8.27;5.40;;;19.10;99.90;;;;;;4987098;28;20105;-87
2022/06/30 01:26:56;;;;;;;7.85;5.70;;;19.10;99.90;;;;;;5000921;28;20116;-87
2022/06/30 01:29:22;;;;;;;8.07;5.45;;;19.10;99.90;;;;;;4989069;28;20038;-87
2022/06/30 01:31:47;;;;;;;8.02;5.43;;;19.00;99.90;;;;;;5005508;28;20192;-87
2022/06/30 01:34:13;;;;;;;7.68;5.30;;;19.10;99.90;;;;;;5020410;28;20065;-86
2022/06/30 01:36:39;;;;;;;8.35;5.68;;;19.00;99.90;;;;;;5010622;28;20402;-87
2022/06/30 01:39:04;;;;;;;7.32;5.53;;;19.00;99.90;;;;;;5007689;28;20087;-87
2022/06/30 01:41:30;;;;;;;7.72;5.57;;;19.00;99.90;;;;;;5027004;28;20142;-88
2022/06/30 01:43:55;;;;;;;7.53;5.22;;;19.10;99.90;;;;;;5007021;28;20502;-87
2022/06/30 01:46:21;;;;;;;7.03;4.88;;;19.00;99.90;;;;;;5006821;28;20053;-87
2022/06/30 01:48:46;;;;;;;7.20;5.03;;;19.00;99.90;;;;;;5007480;28;20048;-87
2022/06/30 01:51:12;;;;;;;8.50;5.18;;;19.00;99.90;;;;;;5007011;28;20447;-87
2022/06/30 01:53:38;;;;;;;8.27;5.18;;;19.00;99.90;;;;;;5018168;28;20136;-87
2022/06/30 01:56:03;;;;;;;8.70;5.25;;;19.00;99.90;;;;;;5021390;28;20041;-87
2022/06/30 01:58:29;;;;;;;7.75;5.30;;;19.00;99.90;;;;;;5016077;28;20057;-87
2022/06/30 02:00:55;;;;;;;7.30;5.18;;;19.00;99.90;;;;;;5016238;28;20062;-88
2022/06/30 02:03:20;;;;;;;9.30;6.00;;;19.00;99.90;;;;;;5009951;28;20415;-88
2022/06/30 02:05:46;;;;;;;8.40;5.45;;;19.00;99.90;;;;;;5005819;28;20049;-87
2022/06/30 02:08:12;;;;;;;9.35;5.40;;;18.90;99.90;;;;;;5010766;28;20042;-88
2022/06/30 02:10:37;;;;;;;10.27;5.32;;;18.90;99.90;;;;;;5017489;28;20049;-87
2022/06/30 02:13:05;;;;;;;8.38;5.43;;;18.90;99.90;;;;;;5017936;28;20757;-87
2022/06/30 02:15:34;;;;;;;8.13;5.32;;;18.90;99.90;;;;;;5009792;28;20041;-88
2022/06/30 02:18:03;;;;;;;7.50;5.28;;;18.80;99.90;;;;;;5006208;28;20522;-87
2022/06/30 02:20:28;;;;;;;8.90;5.97;;;18.80;99.90;;;;;;5018202;28;20475;-87
2022/06/30 02:22:57;;;;;;;9.15;5.43;;;18.80;99.90;;;;;;5020335;28;20037;-89
2022/06/30 02:25:24;;;;;;;8.65;5.60;;;18.80;99.90;;;;;;5009541;28;20049;-88
2022/06/30 02:27:50;;;;;;;9.05;5.47;;;18.70;99.90;;;;;;5004863;28;20125;-88
2022/06/30 02:30:16;;;;;;;7.90;5.65;;;18.70;99.90;;;;;;5010271;28;20030;-89
2022/06/30 02:32:41;;;;;;;8.65;5.60;;;18.70;99.90;;;;;;5006585;28;20037;-88
2022/06/30 02:35:08;;;;;;;9.35;5.40;;;18.70;99.90;;;;;;5021297;28;20517;-89
2022/06/30 02:37:33;;;;;;;8.20;6.07;;;18.70;99.90;;;;;;4990429;28;20053;-89
2022/06/30 02:39:59;;;;;;;8.57;5.72;;;18.60;99.90;;;;;;4989914;28;20629;-87
2022/06/30 02:42:25;;;;;;;7.75;5.80;;;18.60;99.90;;;;;;4989443;28;20046;-87
2022/06/30 02:44:50;;;;;;;7.90;5.60;;;18.60;99.90;;;;;;4989921;28;20478;-88
2022/06/30 02:47:16;;;;;;;8.57;5.60;;;18.60;99.90;;;;;;5012117;28;20128;-86
2022/06/30 02:49:42;;;;;;;7.93;5.60;;;18.50;99.90;;;;;;4987338;28;20042;-87
2022/06/30 02:52:08;;;;;;;7.85;5.80;;;18.40;99.90;;;;;;4988868;28;20052;-87
2022/06/30 02:54:34;;;;;;;8.52;5.22;;;18.50;99.90;;;;;;4990087;28;20053;-88
2022/06/30 02:56:59;;;;;;;8.75;5.80;;;18.50;99.90;;;;;;4998091;28;20072;-92
2022/06/30 02:59:25;;;;;;;8.60;5.68;;;18.40;99.90;;;;;;4986408;28;20457;-91
2022/06/30 03:01:51;;;;;;;8.10;5.82;;;18.40;99.90;;;;;;4971686;28;20045;-91
2022/06/30 03:04:16;;;;;;;7.63;5.43;;;18.40;99.90;;;;;;4996696;28;20199;-91
2022/06/30 03:06:42;;;;;;;7.53;5.38;;;18.40;99.90;;;;;;4996615;28;20061;-90
2022/06/30 03:09:08;;;;;;;8.88;5.82;;;18.30;99.90;;;;;;5015844;28;20128;-92
2022/06/30 03:11:34;;;;;;;7.60;5.80;;;18.30;99.90;;;;;;5015011;28;20053;-92
2022/06/30 03:14:02;;;;;;;8.45;5.50;;;18.40;99.90;;;;;;5006714;28;20045;-91
2022/06/30 03:16:28;;;;;;;8.32;5.80;;;18.40;99.90;;;;;;5001066;28;20048;-93
2022/06/30 03:18:54;;;;;;;8.75;5.50;;;18.30;99.90;;;;;;5013316;28;20050;-93
2022/06/30 03:21:22;;;;;;;8.13;5.40;;;18.30;99.90;;;;;;4984129;28;20041;-94
2022/06/30 03:23:48;;;;;;;8.77;5.15;;;18.30;99.90;;;;;;4995581;28;20041;-93
2022/06/30 03:26:13;;;;;;;7.88;5.60;;;18.30;99.90;;;;;;5001725;28;20330;-92
2022/06/30 03:28:39;;;;;;;8.80;5.63;;;18.30;99.90;;;;;;5020758;28;20056;-96
2022/06/30 03:31:05;;;;;;;9.40;5.85;;;18.30;99.90;;;;;;4991926;28;20042;-95
2022/06/30 03:33:31;;;;;;;7.63;5.20;;;18.20;99.90;;;;;;4989039;28;20088;-93
2022/06/30 03:35:57;;;;;;;7.72;5.18;;;18.20;99.90;;;;;;5011066;28;20050;-93
2022/06/30 03:38:23;;;;;;;8.15;5.57;;;18.20;99.90;;;;;;4996056;28;20096;-93
2022/06/30 03:40:49;;;;;;;7.72;5.35;;;18.20;99.90;;;;;;4991845;28;20438;-93
2022/06/30 03:43:16;;;;;;;7.75;5.60;;;18.30;99.90;;;;;;4998244;28;20048;-94
2022/06/30 03:45:42;;;;;;;8.27;5.30;;;18.20;99.90;;;;;;5009222;28;20045;-92
2022/06/30 03:48:08;;;;;;;9.00;5.78;;;18.20;99.90;;;;;;5022777;28;20128;-93
2022/06/30 03:50:34;;;;;;;7.03;5.15;;;18.20;99.90;;;;;;5008592;28;20120;-93
2022/06/30 03:53:01;;;;;;;8.15;5.28;;;18.30;99.90;;;;;;5003808;28;20129;-93
2022/06/30 03:55:27;;;;;;;8.07;5.68;;;18.20;99.90;;;;;;5004046;28;20046;-95
2022/06/30 03:57:53;;;;;;;8.90;5.50;;;18.30;99.90;;;;;;5011370;28;20320;-93
2022/06/30 04:00:19;;;;;;;8.50;5.32;;;18.30;99.90;;;;;;4995727;28;20049;-92
2022/06/30 04:02:45;;;;;;;7.72;5.43;;;18.40;99.90;;;;;;5001317;28;20068;-93
2022/06/30 04:05:11;;;;;;;8.07;5.43;;;18.50;99.90;;;;;;5003951;28;20125;-93
2022/06/30 04:07:44;;;;;;;8.50;5.70;;;18.40;99.90;;;;;;5008486;28;20364;-94
2022/06/30 04:10:12;;;;;;;8.43;5.82;;;18.40;99.90;;;;;;4992136;28;20045;-93
2022/06/30 04:12:38;;;;;;;8.85;5.35;;;18.40;99.90;;;;;;5012798;28;20081;-92
2022/06/30 04:15:07;;;;;;;8.57;5.95;;;18.50;99.90;;;;;;5011774;28;20049;-93
2022/06/30 04:17:35;;;;;;;7.53;5.30;;;18.50;99.90;;;;;;5006478;28;20099;-94
2022/06/30 04:20:03;;;;;;;8.27;5.53;;;18.60;99.90;;;;;;4989152;28;20358;-92
2022/06/30 04:22:29;;;;;;;7.55;5.53;;;18.60;99.90;;;;;;5006570;28;20087;-91
2022/06/30 04:24:54;;;;;;;9.02;5.35;;;18.60;99.90;;;;;;4993516;28;20045;-93
2022/06/30 04:27:20;;;;;;;8.38;5.70;;;18.70;99.90;;;;;;4994193;28;20065;-93
2022/06/30 04:29:46;;;;;;;9.10;5.80;;;18.60;99.90;;;;;;5003426;28;20041;-93
2022/06/30 04:34:56;;;;;;;8.23;5.10;;;18.70;99.90;;;;;;5009217;28;20046;-94
2022/06/30 04:37:21;;;;;;;7.43;5.28;;;18.70;99.90;;;;;;5006512;28;20038;-93
2022/06/30 04:39:47;;;;;;;7.85;5.43;;;18.80;99.90;;;;;;5006109;28;20045;-95
2022/06/30 04:42:13;;;;;;;7.07;5.07;;;18.80;99.90;;;;;;4995160;28;20077;-96
2022/06/30 04:44:39;;;;;;;8.20;4.95;;;18.80;99.90;;;;;;4997472;28;20051;-93
2022/06/30 04:47:13;;;;;;;8.80;5.63;;;18.90;99.90;;;;;;5028674;28;20488;-96
2022/06/30 04:49:39;;;;;;;8.10;5.30;;;19.00;99.90;;;;;;4982936;28;20104;-92
2022/06/30 04:52:05;;;;;;;8.00;6.00;;;19.00;99.90;;;;;;4991380;28;20696;-96
2022/06/30 04:54:30;;;;;;;8.35;6.05;;;19.10;99.90;;;;;;4999881;28;20046;-93
2022/06/30 04:56:56;;;;;;;7.32;4.95;;;19.10;99.90;;;;;;5002934;28;20046;-94
2022/06/30 04:59:22;;;;;;;8.32;5.70;;;19.20;99.90;;;;;;5009670;28;20498;-92
2022/06/30 05:01:47;;;;;;;7.97;5.35;;;19.30;99.90;;;;;;5003205;28;20477;-93
2022/06/30 05:04:13;;;;;;;7.65;5.65;;;19.40;99.90;;;;;;5004383;28;20041;-93
2022/06/30 05:06:39;;;;;;;7.38;5.43;;;19.30;99.90;;;;;;5005437;28;20614;-92
2022/06/30 05:09:04;;;;;;;7.15;5.03;;;19.30;99.90;;;;;;5010514;28;20050;-91
2022/06/30 05:11:30;;;;;;;7.90;5.30;;;19.50;99.90;;;;;;5002619;28;20076;-92
2022/06/30 05:13:56;;;;;;;9.25;5.82;;;19.30;99.90;;;;;;4982189;28;20053;-91
2022/06/30 05:16:21;;;;;;;8.32;5.82;;;19.40;99.90;;;;;;5013889;28;20048;-92
2022/06/30 05:18:47;;;;;;;8.05;5.10;;;19.40;99.90;;;;;;5010095;28;20056;-96
2022/06/30 05:21:16;;;;;;;7.57;5.57;;;19.50;99.90;;;;;;5019761;28;20042;-94
2022/06/30 05:26:28;;;;;;;7.72;5.82;;;19.70;99.90;;;;;;5013576;28;20554;-93
2022/06/30 05:26:30;;;;;;;8.27;5.70;;;19.70;99.90;;;;;;5011968;28;20057;-92
2022/06/30 05:28:55;;;;;;;7.82;5.32;;;19.70;99.90;;;;;;5008720;28;20630;-93
2022/06/30 05:31:21;;;;;;;8.10;6.07;;;19.70;99.90;;;;;;5019353;28;20041;-91
2022/06/30 05:33:46;;;;;;;9.25;6.35;;;19.80;99.90;;;;;;5005337;28;20047;-94
2022/06/30 05:36:12;;;;;;;9.95;6.38;;;19.90;99.90;;;;;;4997382;28;20038;-94
2022/06/30 05:38:38;;;;;;;7.88;6.13;;;20.00;99.90;;;;;;4994352;28;20046;-94
2022/06/30 05:41:04;;;;;;;8.70;6.30;;;20.10;99.90;;;;;;4998750;28;20045;-96
2022/06/30 05:43:30;;;;;;;9.55;6.43;;;20.20;99.90;;;;;;5012013;28;20049;-93
2022/06/30 05:45:55;;;;;;;8.82;6.20;;;20.30;99.90;;;;;;4995307;28;20056;-93
2022/06/30 05:48:21;;;;;;;9.07;6.90;;;20.30;99.90;;;;;;4993156;28;20049;-91
2022/06/30 05:50:47;;;;;;;8.20;6.65;;;20.40;99.90;;;;;;4998858;28;20044;-92
2022/06/30 05:53:13;;;;;;;8.43;6.38;;;20.50;99.90;;;;;;4977486;28;20069;-95
2022/06/30 05:55:39;;;;;;;9.30;5.53;;;20.50;99.90;;;;;;5009164;28;20506;-92
2022/06/30 05:58:05;;;;;;;8.70;6.05;;;20.60;99.90;;;;;;5001604;28;20038;-95
2022/06/30 06:00:31;;;;;;;9.15;5.57;;;20.80;99.90;;;;;;4987306;28;20426;-94
2022/06/30 06:02:57;;;;;;;10.18;5.97;;;20.70;99.90;;;;;;4972416;28;20057;-95
2022/06/30 06:05:24;;;;;;;9.15;6.50;;;20.80;99.90;;;;;;4992252;28;20426;-94
2022/06/30 06:07:51;;;;;;;8.15;6.10;;;20.80;99.90;;;;;;4997771;28;20120;-93
2022/06/30 06:10:18;;;;;;;9.25;6.47;;;21.00;99.90;;;;;;4990824;28;20395;-95
2022/06/30 06:12:44;;;;;;;9.50;7.07;;;21.10;99.90;;;;;;5002680;28;20053;-91
2022/06/30 06:15:14;;;;;;;8.48;6.55;;;21.10;99.90;;;;;;4995603;28;20120;-93
2022/06/30 06:17:48;;;;;;;9.93;6.70;;;21.20;99.90;;;;;;4997103;28;20049;-93
2022/06/30 06:20:16;;;;;;;9.50;6.75;;;21.20;99.90;;;;;;5010085;28;20133;-91
2022/06/30 06:22:43;;;;;;;8.82;6.50;;;21.40;99.90;;;;;;4995940;28;20163;-93
2022/06/30 06:25:09;;;;;;;8.80;6.72;;;21.50;99.90;;;;;;4986768;28;20049;-93
2022/06/30 06:27:35;;;;;;;9.43;6.40;;;21.50;99.90;;;;;;4967786;28;20126;-90
2022/06/30 06:30:06;;;;;;;16.13;7.53;;;21.60;99.90;;;;;;4984553;28;20054;-89
2022/06/30 06:32:32;;;;;;;8.45;6.47;;;21.70;99.90;;;;;;4984651;28;20046;-89
2022/06/30 06:34:58;;;;;;;9.38;6.65;;;21.70;99.90;;;;;;5007049;28;20077;-90
2022/06/30 06:37:24;;;;;;;11.23;7.60;;;21.80;99.90;;;;;;5005212;28;20045;-92
2022/06/30 06:39:50;;;;;;;11.50;8.18;;;21.80;99.90;;;;;;4991112;28;20908;-92
2022/06/30 06:42:15;;;;;;;10.73;7.30;;;21.90;99.90;;;;;;4974646;28;20042;-92
2022/06/30 06:44:41;;;;;;;9.30;7.10;;;21.90;99.90;;;;;;5007029;28;20048;-91
2022/06/30 06:47:07;;;;;;;9.52;7.38;;;21.90;99.90;;;;;;4985413;28;20453;-90
2022/06/30 06:49:33;;;;;;;9.73;6.97;;;22.00;99.90;;;;;;4996727;28;20045;-90
2022/06/30 06:51:59;;;;;;;9.73;6.93;;;22.10;99.90;;;;;;4972863;28;20506;-91
2022/06/30 06:54:24;;;;;;;10.13;7.43;;;22.20;99.90;;;;;;5018701;28;20362;-93
2022/06/30 06:56:50;;;;;;;11.98;7.65;;;22.20;99.90;;;;;;4986051;28;20038;-89
2022/06/30 06:59:16;;;;;;;8.65;6.93;;;22.30;99.90;;;;;;5000973;28;20397;-92
2022/06/30 07:01:42;;;;;;;9.88;7.30;;;22.40;99.90;;;;;;5006198;28;20057;-91
2022/06/30 07:04:08;;;;;;;10.77;7.43;;;22.30;99.90;;;;;;5020467;28;20042;-92
2022/06/30 07:06:34;;;;;;;10.20;7.45;;;22.40;99.90;;;;;;4995836;28;20137;-90
2022/06/30 07:09:03;;;;;;;8.55;6.47;;;22.50;99.90;;;;;;4986708;28;20041;-91
2022/06/30 07:11:29;;;;;;;9.80;7.60;;;22.60;99.90;;;;;;5012324;28;20139;-91
2022/06/30 07:13:54;;;;;;;10.65;8.13;;;22.70;99.90;;;;;;4970603;28;20035;-91
2022/06/30 07:16:20;;;;;;;11.18;8.43;;;22.70;99.90;;;;;;4985624;28;20478;-91
2022/06/30 07:18:46;;;;;;;9.45;8.05;;;22.80;99.90;;;;;;4976920;28;20037;-92
2022/06/30 07:21:11;;;;;;;10.65;8.52;;;22.80;99.90;;;;;;4993255;28;20050;-94
2022/06/30 07:23:37;;;;;;;9.75;7.88;;;22.80;99.90;;;;;;5022944;28;20410;-92
2022/06/30 07:26:03;;;;;;;10.88;8.73;;;23.00;99.90;;;;;;4994993;28;20049;-90
2022/06/30 07:28:29;;;;;;;10.52;8.88;;;23.00;99.90;;;;;;4992213;28;20135;-90
2022/06/30 07:30:54;;;;;;;9.90;7.97;;;23.10;99.90;;;;;;4990099;28;20483;-93
2022/06/30 07:33:20;;;;;;;11.23;8.90;;;23.10;99.90;;;;;;4987480;28;20084;-94
2022/06/30 07:35:46;;;;;;;9.98;7.78;;;23.20;99.90;;;;;;5003082;28;20463;-90
2022/06/30 07:38:12;;;;;;;9.85;7.60;;;23.20;99.90;;;;;;5006735;28;20065;-94
2022/06/30 07:40:37;;;;;;;9.43;7.70;;;23.30;99.90;;;;;;5012034;28;20065;-91
2022/06/30 07:43:03;;;;;;;10.35;8.25;;;23.40;99.90;;;;;;5010265;28;20034;-93
2022/06/30 07:45:32;;;;;;;9.73;7.20;;;23.40;99.90;;;;;;5011331;28;22024;-90
2022/06/30 07:47:58;;;;;;;11.07;8.30;;;23.50;99.90;;;;;;5013658;28;20049;-90
2022/06/30 07:50:23;;;;;;;10.38;7.88;;;23.50;99.90;;;;;;4987239;28;20511;-91
2022/06/30 07:52:49;;;;;;;10.80;8.85;;;23.60;99.90;;;;;;5023193;28;20557;-91
2022/06/30 07:55:15;;;;;;;10.00;8.55;;;23.60;99.90;;;;;;4989899;28;20045;-90
2022/06/30 07:57:42;;;;;;;10.70;9.55;;;23.80;99.90;;;;;;5011505;28;20050;-91
2022/06/30 08:00:10;;;;;;;9.45;7.65;;;23.80;99.90;;;;;;5005531;28;20096;-91
2022/06/30 08:02:36;;;;;;;12.77;8.60;;;23.80;99.90;;;;;;5019006;28;20659;-91
2022/06/30 08:05:02;;;;;;;11.98;10.35;;;23.80;99.90;;;;;;5000211;28;20049;-93
2022/06/30 08:07:27;;;;;;;10.75;8.95;;;23.80;99.90;;;;;;5022729;28;20041;-92
2022/06/30 08:09:53;;;;;;;11.48;9.32;;;23.90;99.90;;;;;;4998221;28;20647;-94
2022/06/30 08:12:19;;;;;;;10.57;8.57;;;23.90;99.90;;;;;;5008001;28;20117;-93
2022/06/30 08:14:46;;;;;;;11.23;9.25;;;23.90;99.90;;;;;;5006008;28;20173;-91
2022/06/30 08:17:12;;;;;;;10.55;8.63;;;24.10;99.90;;;;;;5004969;28;20065;-93
2022/06/30 08:19:37;;;;;;;10.15;9.15;;;24.10;99.90;;;;;;5014694;28;20066;-94
2022/06/30 08:22:03;;;;;;;13.07;11.32;;;24.10;99.90;;;;;;4993658;28;20049;-90
2022/06/30 08:24:29;;;;;;;12.68;10.20;;;24.20;99.90;;;;;;5011610;28;20049;-92
2022/06/30 08:26:55;;;;;;;13.40;10.98;;;24.30;99.90;;;;;;5004161;28;20041;-92
2022/06/30 08:29:22;;;;;;;12.32;10.90;;;24.30;99.90;;;;;;5019663;28;20477;-91
2022/06/30 08:31:48;;;;;;;12.00;10.32;;;24.40;99.90;;;;;;5005503;28;20050;-92
2022/06/30 08:34:14;;;;;;;12.80;11.15;;;24.30;99.90;;;;;;5015145;28;20057;-90
2022/06/30 08:36:39;;;;;;;14.07;11.85;;;24.40;99.90;;;;;;5018167;28;20073;-92
2022/06/30 08:42:02;;;;;;;14.52;12.85;;;24.50;99.90;;;;;;4995369;28;20463;-92
2022/06/30 08:42:03;;;;;;;13.05;10.45;;;24.50;99.90;;;;;;4999758;28;20049;-91
2022/06/30 08:44:33;;;;;;;20.23;13.48;;;24.70;99.90;;;;;;5000533;28;20097;-92
2022/06/30 08:46:59;;;;;;;14.27;12.55;;;24.70;99.90;;;;;;5007466;28;20037;-91
2022/06/30 08:49:26;;;;;;;15.48;13.98;;;24.70;99.90;;;;;;5002523;28;20064;-93
2022/06/30 08:51:53;;;;;;;12.65;11.00;;;24.80;99.90;;;;;;5009017;28;20073;-90
2022/06/30 08:54:21;;;;;;;14.30;12.90;;;24.80;99.90;;;;;;5002833;28;20123;-91
2022/06/30 08:56:50;;;;;;;13.27;11.73;;;24.90;99.90;;;;;;5006249;28;20046;-91
2022/06/30 08:59:16;;;;;;;13.45;12.05;;;24.90;99.90;;;;;;5014804;28;20596;-90
2022/06/30 09:01:43;;;;;;;13.57;11.55;;;25.00;99.90;;;;;;5023715;28;20045;-91
2022/06/30 09:04:11;;;;;;;13.40;11.93;;;25.00;99.90;;;;;;5008509;28;20042;-91
2022/06/30 09:06:37;;;;;;;13.90;12.57;;;25.00;99.90;;;;;;5012119;28;20070;-91
2022/06/30 09:09:04;;;;;;;13.00;11.50;;;25.00;99.90;;;;;;4991246;28;20813;-90
2022/06/30 09:11:52;;;;;;;13.02;11.57;;;25.00;99.90;;;;;;5011999;28;20034;-90
2022/06/30 09:14:35;;;;;;;13.40;12.00;;;25.10;99.90;;;;;;5004787;28;20413;-93
2022/06/30 09:17:03;;;;;;;14.55;13.05;;;25.20;99.90;;;;;;5014088;28;20042;-91
2022/06/30 09:19:30;;;;;;;14.05;12.50;;;25.20;99.90;;;;;;5018156;28;20449;-93
2022/06/30 09:22:10;;;;;;;14.88;13.38;;;25.20;99.90;;;;;;5017438;28;20056;-91
2022/06/30 09:24:36;;;;;;;;;;;25.20;99.90;;;;;;5004843;28;20049;-93
2022/06/30 09:27:19;;;;;;;15.32;13.82;;;25.20;99.90;;;;;;5011130;28;20414;-91
2022/06/30 09:29:59;;;;;;;15.25;13.75;;;25.30;99.90;;;;;;4988402;28;20053;-91
2022/06/30 09:32:25;;;;;;;13.45;12.05;;;25.30;99.90;;;;;;5007017;28;20049;-89
2022/06/30 09:34:52;;;;;;;13.30;11.90;;;25.40;99.90;;;;;;4993223;28;20034;-89
2022/06/30 09:37:21;;;;;;;14.27;12.77;;;25.50;99.90;;;;;;4988387;28;20749;-90
2022/06/30 09:39:47;;;;;;;15.00;13.50;;;25.50;99.90;;;;;;5004430;28;20042;-90
2022/06/30 09:42:14;;;;;;;14.43;13.02;;;25.50;99.90;;;;;;5017117;28;20098;-90
2022/06/30 09:44:40;;;;;;;13.98;12.48;;;25.50;99.90;;;;;;5014748;28;20050;-91
2022/06/30 09:47:07;;;;;;;12.88;11.57;;;25.60;99.90;;;;;;5012892;28;20448;-91
2022/06/30 09:49:36;;;;;;;13.18;11.77;;;25.60;99.90;;;;;;5004807;28;20046;-90
2022/06/30 09:52:04;;;;;;;14.00;11.45;;;25.70;99.90;;;;;;4993304;28;20045;-89
2022/06/30 09:54:35;;;;;;;11.27;10.07;;;25.80;99.90;;;;;;5005132;28;20092;-89
2022/06/30 09:57:05;;;;;;;;;;;25.80;99.90;;;;;;5003558;28;20499;-90
2022/06/30 09:59:32;;;;;;;11.77;10.00;;;25.80;99.90;;;;;;5009359;28;20286;-89
2022/06/30 10:01:59;;;;;;;11.98;10.57;;;25.90;99.90;;;;;;5011693;28;20069;-90
2022/06/30 10:04:25;;;;;;;12.27;10.18;;;25.90;99.90;;;;;;5002524;28;20054;-89
2022/06/30 10:06:52;;;;;;;12.82;11.10;;;26.00;99.90;;;;;;5002784;28;20041;-88
2022/06/30 10:09:18;;;;;;;13.30;11.02;;;26.00;99.90;;;;;;5005866;28;20081;-88
2022/06/30 10:11:46;;;;;;;12.05;9.90;;;26.00;99.90;;;;;;5002072;28;20077;-88
2022/06/30 10:14:16;;;;;;;12.38;11.07;;;26.00;99.90;;;;;;5004887;28;20107;-89
2022/06/30 10:16:42;;;;;;;12.23;9.77;;;26.00;99.90;;;;;;5007246;28;20088;-88
2022/06/30 10:19:15;;;;;;;12.93;10.98;;;26.00;99.90;;;;;;5004116;28;20049;-89
2022/06/30 10:21:41;;;;;;;10.30;9.18;;;26.00;99.90;;;;;;5005705;28;20038;-92
2022/06/30 10:24:08;;;;;;;12.10;10.90;;;26.00;99.90;;;;;;4985465;28;20057;-89
2022/06/30 10:29:19;;;;;;;12.65;10.75;;;26.00;99.90;;;;;;5002691;28;20487;-91
2022/06/30 10:31:57;;;;;;;11.43;10.20;;;26.10;99.90;;;;;;5008649;28;20046;-92
2022/06/30 10:34:28;;;;;;;13.60;12.20;;;26.10;99.90;;;;;;5013080;28;20061;-94
2022/06/30 10:37:07;;;;;;;14.68;11.05;;;26.20;99.90;;;;;;5002721;28;20042;-93
2022/06/30 10:39:38;;;;;;;12.13;10.82;;;26.20;99.90;;;;;;5010294;28;20053;-93
2022/06/30 10:42:04;;;;;;;11.15;9.80;;;26.30;99.90;;;;;;5008900;28;20288;-93
2022/06/30 10:44:32;;;;;;;13.30;11.20;;;26.30;99.90;;;;;;5009618;28;20390;-92
2022/06/30 10:46:57;;;;;;;13.88;12.48;;;26.40;99.90;;;;;;5017218;28;20049;-94
2022/06/30 10:49:24;;;;;;;14.63;12.18;;;26.30;99.90;;;;;;5000644;28;20053;-93
2022/06/30 10:51:54;;;;;;;12.68;10.35;;;26.40;99.90;;;;;;4987573;28;20038;-93
2022/06/30 10:54:32;;;;;;;13.15;11.27;;;26.30;99.90;;;;;;5001520;28;20441;-95
2022/06/30 10:56:59;;;;;;;12.02;10.13;;;26.40;99.90;;;;;;5014794;28;20057;-94
2022/06/30 10:59:42;;;;;;;11.98;9.55;;;26.50;99.90;;;;;;4993753;28;20050;-94
2022/06/30 11:02:10;;;;;;;9.63;8.15;;;26.50;99.90;;;;;;5010005;28;20052;-94
2022/06/30 11:04:40;;;;;;;10.32;8.70;;;26.60;99.90;;;;;;4991656;28;20487;-94
2022/06/30 11:07:08;;;;;;;10.37;9.07;;;26.60;99.90;;;;;;5010984;28;20125;-94
2022/06/30 11:09:49;;;;;;;9.85;8.00;;;26.60;99.90;;;;;;5013938;28;20308;-95
2022/06/30 11:12:43;;;;;;;9.25;6.80;;;26.60;99.90;;;;;;5009964;28;20065;-94
2022/06/30 11:15:10;;;;;;;8.63;5.57;;;26.50;99.90;;;;;;5001943;28;20073;-94
2022/06/30 11:17:39;;;;;;;8.55;5.32;;;26.60;99.90;;;;;;5008110;28;20092;-94
2022/06/30 11:20:12;;;;;;;8.83;5.60;;;26.60;99.90;;;;;;5011699;28;20095;-94
2022/06/30 11:22:38;;;;;;;10.50;8.20;;;26.70;99.90;;;;;;5006268;28;20045;-90
2022/06/30 11:28:15;;;;;;;9.23;7.10;;;26.90;99.90;;;;;;4945950;29;20051;-94
2022/06/30 11:30:42;;;;;;;9.63;7.00;;;26.90;99.90;;;;;;4930455;28;20051;-92
2022/06/30 11:33:08;;;;;;;10.98;8.40;;;26.90;99.90;;;;;;4929889;29;20086;-94
2022/06/30 11:35:34;;;;;;;9.77;7.30;;;26.80;99.90;;;;;;4946447;28;20086;-92
2022/06/30 11:37:59;;;;;;;9.05;7.22;;;26.80;99.90;;;;;;4941376;29;20428;-91
2022/06/30 11:40:29;;;;;;;9.98;7.18;;;26.80;99.90;;;;;;4947662;29;20468;-93
2022/06/30 11:42:55;;;;;;;9.13;6.95;;;26.90;99.90;;;;;;4931121;29;20051;-93
2022/06/30 11:45:23;;;;;;;10.75;6.90;;;26.80;99.90;;;;;;4930670;29;20393;-94
2022/06/30 11:48:03;;;;;;;10.57;7.28;;;26.80;99.90;;;;;;4946535;29;20051;-93
2022/06/30 11:50:29;;;;;;;11.18;7.15;;;26.80;99.90;;;;;;4931446;29;20051;-92
2022/06/30 11:53:00;;;;;;;11.02;7.72;;;26.80;99.90;;;;;;4929262;29;20043;-93
2022/06/30 11:55:27;;;;;;;;;;;26.80;99.90;;;;;;4928483;29;20051;-94
2022/06/30 11:57:52;;;;;;;10.43;7.68;;;26.70;99.90;;;;;;4930150;29;20483;-94
2022/06/30 12:00:21;;;;;;;11.57;7.88;;;26.80;99.90;;;;;;4923723;29;20046;-93
2022/06/30 12:02:48;;;;;;;10.23;6.25;;;26.80;99.90;;;;;;4938045;28;20302;-94
2022/06/30 12:05:16;;;;;;;10.00;6.38;;;26.80;99.90;;;;;;5009674;28;20120;-93
2022/06/30 12:07:42;;;;;;;9.77;5.90;;;26.80;99.90;;;;;;5026116;28;20054;-92
2022/06/30 12:10:11;;;;;;;9.93;5.57;;;26.70;99.90;;;;;;5015713;28;20041;-91
2022/06/30 12:12:38;;;;;;;8.50;5.05;;;26.70;99.90;;;;;;5025578;28;20049;-91
2022/06/30 12:15:07;;;;;;;8.32;5.38;;;26.80;99.90;;;;;;5007478;28;20041;-92
2022/06/30 12:17:39;;;;;;;7.93;5.30;;;26.80;99.90;;;;;;5022684;28;20392;-89
2022/06/30 12:20:08;;;;;;;9.82;5.63;;;26.80;99.90;;;;;;5001410;28;20407;-91
2022/06/30 12:22:34;;;;;;;8.65;5.45;;;26.80;99.90;;;;;;5005703;28;20077;-93
2022/06/30 12:25:01;;;;;;;8.75;5.15;;;26.80;99.90;;;;;;5012753;28;20034;-89
2022/06/30 12:27:36;;;;;;;8.52;5.05;;;26.80;99.90;;;;;;5016542;28;20045;-91
2022/06/30 12:30:06;;;;;;;8.82;6.00;;;26.90;99.90;;;;;;5012560;28;20064;-92
2022/06/30 12:32:32;;;;;;;12.15;5.43;;;26.90;99.90;;;;;;5011239;28;20041;-89
2022/06/30 12:35:00;;;;;;;7.25;4.68;;;26.90;99.90;;;;;;5013830;28;20053;-92
2022/06/30 12:37:43;;;;;;;7.90;4.50;;;27.00;99.90;;;;;;5018979;28;20073;-93
2022/06/30 12:40:11;;;;;;;9.70;4.80;;;27.00;99.90;;;;;;4997864;28;20042;-90
2022/06/30 12:42:47;;;;;;;8.57;4.10;;;27.00;99.90;;;;;;5001835;28;20084;-93
2022/06/30 12:45:53;;;;;;;9.10;4.82;;;27.00;99.90;;;;;;5025325;28;20050;-93
2022/06/30 12:48:42;;;;;;;7.85;3.85;;;27.00;99.90;;;;;;5004397;28;20083;-93
2022/06/30 12:51:14;;;;;;;8.27;4.20;;;27.00;99.90;;;;;;5018600;28;20064;-93
2022/06/30 12:53:40;;;;;;;7.47;4.03;;;27.00;99.90;;;;;;5005894;28;20053;-94
2022/06/30 12:56:14;;;;;;;8.30;4.05;;;27.00;99.90;;;;;;5016916;28;20050;-93